Startpagina
METAR-TAF:

METAR-TAF

Vliegvelden :

Pyongyang, Noord-Korea

Sunan International Airport

breedte: 39-02N, lengte: 125-47E, hoogte: 36 m

METAR: ontbreekt

Tijdstip: 10:38 (02:08 UTC)

Verwachting

Dit bericht is 4 uur en het 38 minuten geleden gemaakt, om 21:30 UTC
Verwachting geldig van 23 om 00 UTC tot 23 om 24 UTC
Wind 8 kt uit het zuidzuidwesten
Zicht: 2000 m
nevel
Wijzigt naar
van 23 om 02 UTC tot 23 om 04 UTC
Zicht 10 km of meer
geen wolken onder 1500 m en geen cumulonimbus

TAF: ZKPY 222130Z 2300/2324 20004MPS 2000 BR NSC BECMG 2302/2304 CAVOK

Waarnemingen en weersverwachtingen van meer dan 4000 vliegvelden (METAR en TAF).

De beschikbare stations zijn de gele en rode punten op de kaart.

Ga met uw muis naar het station om de naam te zien.

Klik dan om waarnemingen en weersverwachtingen te zien.

kaart wijzigen: klik op de groene knoppen met een zwart kruis om in te zoomen, op de groene knop met een streepje om uit te zoomen of op de groene pijlen voor aangrenzende kaarten.


METAR-TAF: